Time,TemperatureF,DewpointF,PressureIn,WindDirection,WindDirectionDegrees,WindSpeedMPH,WindSpeedGustMPH,Humidity,HourlyPrecipIn,Conditions,Clouds,dailyrainin,SoftwareType,DateUTC
2013-06-25 01:00:00,68.0,67.4,29.85,North,0,0.0,0.0,98,0.00,-RA,,0.00,WeatherDisplay:10.37,2013-06-25 05:00:00,
2013-06-25 02:00:00,66.2,65.6,29.85,North,0,0.0,0.0,98,0.00,SCT,,0.00,WeatherDisplay:10.37,2013-06-25 06:00:00,
2013-06-25 03:00:00,64.8,64.2,29.85,North,0,0.0,0.0,98,0.00,BKN,,0.00,WeatherDisplay:10.37,2013-06-25 07:00:00,
2013-06-25 04:00:00,64.0,63.5,29.85,North,0,0.0,0.0,98,0.00,OVC,,0.00,WeatherDisplay:10.37,2013-06-25 08:00:00,
2013-06-25 05:00:00,64.0,63.5,29.85,North,0,0.0,0.0,98,0.00,OVC,,0.00,WeatherDisplay:10.37,2013-06-25 09:00:00,
2013-06-25 06:00:00,63.1,62.6,29.85,North,0,0.0,0.0,98,0.00,BKN,,0.00,WeatherDisplay:10.37,2013-06-25 10:00:00,
2013-06-25 07:00:00,63.1,62.6,29.85,North,0,0.0,0.0,98,0.00,OVC,,0.00,WeatherDisplay:10.37,2013-06-25 11:00:00,
2013-06-25 08:00:00,63.9,63.3,29.85,North,0,0.0,0.0,98,0.00,OVC,,0.00,WeatherDisplay:10.37,2013-06-25 12:00:00,
2013-06-25 09:00:00,65.3,64.7,29.85,North,0,0.0,0.0,98,0.00,OVC,,0.00,WeatherDisplay:10.37,2013-06-25 13:00:00,
2013-06-25 10:00:00,67.8,67.2,29.85,North,0,0.0,0.0,98,0.00,OVC,,0.00,WeatherDisplay:10.37,2013-06-25 14:00:00,
2013-06-25 11:00:00,73.2,72.6,29.85,North,0,0.0,0.0,98,0.00,OVC,,0.00,WeatherDisplay:10.37,2013-06-25 15:00:00,
2013-06-25 12:00:00,76.6,76.0,29.85,North,0,0.0,0.0,98,0.00,BKN,,0.00,WeatherDisplay:10.37,2013-06-25 16:00:00,
2013-06-25 13:00:00,79.7,79.1,29.85,North,0,0.0,0.0,98,0.00,SCT,,0.00,WeatherDisplay:10.37,2013-06-25 17:00:00,
2013-06-25 14:00:00,81.7,81.1,29.85,North,0,0.0,0.0,98,0.00,BKN,,0.00,WeatherDisplay:10.37,2013-06-25 18:00:00,
2013-06-25 15:00:00,69.1,68.5,29.85,North,0,0.0,0.0,98,0.00, +RA,,0.00,WeatherDisplay:10.37,2013-06-25 19:00:00,
2013-06-25 16:00:00,73.4,72.8,29.85,North,0,0.0,0.0,98,0.00,SCT,,0.00,WeatherDisplay:10.37,2013-06-25 20:00:00,
2013-06-25 17:00:00,77.7,77.1,29.85,North,0,0.0,0.0,98,0.00,CLR,,0.00,WeatherDisplay:10.37,2013-06-25 21:00:00,
2013-06-25 18:00:00,77.9,77.3,29.85,North,0,0.0,0.0,98,0.00,SCT,,0.00,WeatherDisplay:10.37,2013-06-25 22:00:00,
2013-06-25 19:00:00,77.7,77.1,29.85,North,0,0.0,0.0,98,0.00,BKN,,0.00,WeatherDisplay:10.37,2013-06-25 23:00:00,
2013-06-25 20:00:00,75.2,74.6,29.85,North,0,0.0,0.0,98,0.00,SCT,,0.00,WeatherDisplay:10.37,2013-06-26 00:00:00,
2013-06-25 21:00:00,72.5,71.9,29.85,North,0,0.0,0.0,98,0.00,CLR,,0.00,WeatherDisplay:10.37,2013-06-26 01:00:00,
2013-06-25 22:00:00,70.3,69.7,29.85,North,0,0.0,0.0,98,0.00,CLR,,0.00,WeatherDisplay:10.37,2013-06-26 02:00:00,
2013-06-25 23:00:00,68.0,67.4,29.85,North,0,0.0,0.0,98,0.00,CLR,,0.00,WeatherDisplay:10.37,2013-06-26 03:00:00,